Terminal Aerodrome Forecast
Issued by NWS

Home | Current Version | Previous Version | Text Only | Print | Product List | Glossary On
Versions: 1 2 3 4 5 6 7 8 9 10 11 12 13 14 15 16 17 18 19
071
FTUS44 KLIX 200530
TAFGPT
TAF
KGPT 200530Z 2006/2106 00000KT 1/4SM FG VV002
     FM201400 10005KT 2SM BR BKN004 BKN025
     FM201600 11007KT P6SM SCT120=

USA.gov is the U.S. government's official web portal to all federal, state and local government web resources and services.